sensor_id;sensor_type;location;lat;lon;timestamp;temperature;humidity
45535;DHT22;35892;48.798;9.698;2022-11-20T00:01:24;7.10;99.90
45535;DHT22;35892;48.798;9.698;2022-11-20T00:03:53;7.10;99.90
45535;DHT22;35892;48.798;9.698;2022-11-20T00:06:21;7.20;99.90
45535;DHT22;35892;48.798;9.698;2022-11-20T00:08:49;7.10;99.90
45535;DHT22;35892;48.798;9.698;2022-11-20T00:11:20;7.10;99.90
45535;DHT22;35892;48.798;9.698;2022-11-20T00:13:50;7.10;99.90
45535;DHT22;35892;48.798;9.698;2022-11-20T00:16:19;7.10;99.90
45535;DHT22;35892;48.798;9.698;2022-11-20T00:18:46;7.00;99.90
45535;DHT22;35892;48.798;9.698;2022-11-20T00:21:15;6.90;99.90
45535;DHT22;35892;48.798;9.698;2022-11-20T00:23:47;6.80;99.90
45535;DHT22;35892;48.798;9.698;2022-11-20T00:26:15;6.80;99.90
45535;DHT22;35892;48.798;9.698;2022-11-20T00:28:43;6.70;99.90
45535;DHT22;35892;48.798;9.698;2022-11-20T00:31:13;6.70;99.90
45535;DHT22;35892;48.798;9.698;2022-11-20T00:33:44;6.70;99.90
45535;DHT22;35892;48.798;9.698;2022-11-20T00:36:16;6.70;99.90
45535;DHT22;35892;48.798;9.698;2022-11-20T00:38:46;6.70;99.90
45535;DHT22;35892;48.798;9.698;2022-11-20T00:41:16;6.70;99.90
45535;DHT22;35892;48.798;9.698;2022-11-20T00:43:42;6.60;99.90
45535;DHT22;35892;48.798;9.698;2022-11-20T00:46:13;6.70;99.90
45535;DHT22;35892;48.798;9.698;2022-11-20T00:48:40;6.70;99.90
45535;DHT22;35892;48.798;9.698;2022-11-20T00:51:07;6.70;99.90
45535;DHT22;35892;48.798;9.698;2022-11-20T00:53:36;6.60;99.90
45535;DHT22;35892;48.798;9.698;2022-11-20T00:56:10;6.60;99.90
45535;DHT22;35892;48.798;9.698;2022-11-20T00:58:41;6.60;99.90
45535;DHT22;35892;48.798;9.698;2022-11-20T01:01:16;6.60;99.90
45535;DHT22;35892;48.798;9.698;2022-11-20T01:03:48;6.60;99.90
45535;DHT22;35892;48.798;9.698;2022-11-20T01:06:18;6.60;99.90
45535;DHT22;35892;48.798;9.698;2022-11-20T01:08:46;6.60;99.90
45535;DHT22;35892;48.798;9.698;2022-11-20T01:11:15;6.60;99.90
45535;DHT22;35892;48.798;9.698;2022-11-20T01:13:44;6.60;99.90
45535;DHT22;35892;48.798;9.698;2022-11-20T01:18:44;6.60;99.90
45535;DHT22;35892;48.798;9.698;2022-11-20T01:21:14;6.60;99.90
45535;DHT22;35892;48.798;9.698;2022-11-20T01:23:42;6.70;99.90
45535;DHT22;35892;48.798;9.698;2022-11-20T01:26:11;6.70;99.90
45535;DHT22;35892;48.798;9.698;2022-11-20T01:28:39;6.70;99.90
45535;DHT22;35892;48.798;9.698;2022-11-20T01:31:23;6.70;99.90
45535;DHT22;35892;48.798;9.698;2022-11-20T01:33:53;6.70;99.90
45535;DHT22;35892;48.798;9.698;2022-11-20T01:36:22;6.70;99.90
45535;DHT22;35892;48.798;9.698;2022-11-20T01:38:56;6.70;99.90
45535;DHT22;35892;48.798;9.698;2022-11-20T01:41:24;6.70;99.90
45535;DHT22;35892;48.798;9.698;2022-11-20T01:44:12;6.70;99.90
45535;DHT22;35892;48.798;9.698;2022-11-20T01:47:02;6.70;99.90
45535;DHT22;35892;48.798;9.698;2022-11-20T01:49:38;6.60;99.90
45535;DHT22;35892;48.798;9.698;2022-11-20T01:52:13;6.60;99.90
45535;DHT22;35892;48.798;9.698;2022-11-20T01:54:51;6.60;99.90
45535;DHT22;35892;48.798;9.698;2022-11-20T01:57:24;6.70;99.90
45535;DHT22;35892;48.798;9.698;2022-11-20T02:00:06;6.60;99.90
45535;DHT22;35892;48.798;9.698;2022-11-20T02:02:35;6.60;99.90
45535;DHT22;35892;48.798;9.698;2022-11-20T02:05:14;6.60;99.90
45535;DHT22;35892;48.798;9.698;2022-11-20T02:07:45;6.50;99.90
45535;DHT22;35892;48.798;9.698;2022-11-20T02:10:13;6.50;99.90
45535;DHT22;35892;48.798;9.698;2022-11-20T02:12:40;6.60;99.90
45535;DHT22;35892;48.798;9.698;2022-11-20T02:15:25;6.60;99.90
45535;DHT22;35892;48.798;9.698;2022-11-20T02:17:58;6.50;99.90
45535;DHT22;35892;48.798;9.698;2022-11-20T02:20:25;6.60;99.90
45535;DHT22;35892;48.798;9.698;2022-11-20T02:22:59;6.60;99.90
45535;DHT22;35892;48.798;9.698;2022-11-20T02:25:32;6.60;99.90
45535;DHT22;35892;48.798;9.698;2022-11-20T02:28:00;6.60;99.90
45535;DHT22;35892;48.798;9.698;2022-11-20T02:30:27;6.60;99.90
45535;DHT22;35892;48.798;9.698;2022-11-20T02:32:57;6.60;99.90
45535;DHT22;35892;48.798;9.698;2022-11-20T02:37:54;6.80;99.90
45535;DHT22;35892;48.798;9.698;2022-11-20T02:40:23;7.00;99.90
45535;DHT22;35892;48.798;9.698;2022-11-20T02:42:54;7.00;99.90
45535;DHT22;35892;48.798;9.698;2022-11-20T02:45:22;7.00;99.90
45535;DHT22;35892;48.798;9.698;2022-11-20T02:47:50;7.00;99.90
45535;DHT22;35892;48.798;9.698;2022-11-20T02:50:17;6.90;99.90
45535;DHT22;35892;48.798;9.698;2022-11-20T02:52:46;7.00;99.90
45535;DHT22;35892;48.798;9.698;2022-11-20T02:55:12;6.80;99.90
45535;DHT22;35892;48.798;9.698;2022-11-20T02:57:39;6.90;99.90
45535;DHT22;35892;48.798;9.698;2022-11-20T03:00:07;6.80;99.90
45535;DHT22;35892;48.798;9.698;2022-11-20T03:02:34;6.80;99.90
45535;DHT22;35892;48.798;9.698;2022-11-20T03:05:00;6.80;99.90
45535;DHT22;35892;48.798;9.698;2022-11-20T03:07:27;6.80;99.90
45535;DHT22;35892;48.798;9.698;2022-11-20T03:09:54;6.80;99.90
45535;DHT22;35892;48.798;9.698;2022-11-20T03:12:23;6.80;99.90
45535;DHT22;35892;48.798;9.698;2022-11-20T03:14:50;6.90;99.90
45535;DHT22;35892;48.798;9.698;2022-11-20T03:17:21;6.90;99.90
45535;DHT22;35892;48.798;9.698;2022-11-20T03:19:50;6.90;99.90
45535;DHT22;35892;48.798;9.698;2022-11-20T03:22:19;6.90;99.90
45535;DHT22;35892;48.798;9.698;2022-11-20T03:24:46;6.80;99.90
45535;DHT22;35892;48.798;9.698;2022-11-20T03:27:13;6.90;99.90
45535;DHT22;35892;48.798;9.698;2022-11-20T03:29:40;6.90;99.90
45535;DHT22;35892;48.798;9.698;2022-11-20T03:32:07;6.80;99.90
45535;DHT22;35892;48.798;9.698;2022-11-20T03:34:34;6.90;99.90
45535;DHT22;35892;48.798;9.698;2022-11-20T03:37:01;6.90;99.90
45535;DHT22;35892;48.798;9.698;2022-11-20T03:39:30;7.00;99.90
45535;DHT22;35892;48.798;9.698;2022-11-20T03:41:57;7.00;99.90
45535;DHT22;35892;48.798;9.698;2022-11-20T03:44:24;7.00;99.90
45535;DHT22;35892;48.798;9.698;2022-11-20T03:46:51;6.90;99.90
45535;DHT22;35892;48.798;9.698;2022-11-20T03:49:20;6.90;99.90
45535;DHT22;35892;48.798;9.698;2022-11-20T03:51:49;6.90;99.90
45535;DHT22;35892;48.798;9.698;2022-11-20T03:54:16;7.00;99.90
45535;DHT22;35892;48.798;9.698;2022-11-20T03:56:42;7.00;99.90
45535;DHT22;35892;48.798;9.698;2022-11-20T03:59:10;7.00;99.90
45535;DHT22;35892;48.798;9.698;2022-11-20T04:01:37;7.00;99.90
45535;DHT22;35892;48.798;9.698;2022-11-20T04:04:04;7.00;99.90
45535;DHT22;35892;48.798;9.698;2022-11-20T04:06:36;7.00;99.90
45535;DHT22;35892;48.798;9.698;2022-11-20T04:09:04;6.90;99.90
45535;DHT22;35892;48.798;9.698;2022-11-20T04:11:36;6.80;99.90
45535;DHT22;35892;48.798;9.698;2022-11-20T04:14:05;6.80;99.90
45535;DHT22;35892;48.798;9.698;2022-11-20T04:16:36;6.80;99.90
45535;DHT22;35892;48.798;9.698;2022-11-20T04:19:05;7.00;99.90
45535;DHT22;35892;48.798;9.698;2022-11-20T04:21:32;7.00;99.90
45535;DHT22;35892;48.798;9.698;2022-11-20T04:23:59;7.00;99.90
45535;DHT22;35892;48.798;9.698;2022-11-20T04:26:31;7.00;99.90
45535;DHT22;35892;48.798;9.698;2022-11-20T04:29:00;7.00;99.90
45535;DHT22;35892;48.798;9.698;2022-11-20T04:31:33;7.00;99.90
45535;DHT22;35892;48.798;9.698;2022-11-20T04:34:05;7.00;99.90
45535;DHT22;35892;48.798;9.698;2022-11-20T04:36:34;7.00;99.90
45535;DHT22;35892;48.798;9.698;2022-11-20T04:39:04;7.00;99.90
45535;DHT22;35892;48.798;9.698;2022-11-20T04:41:34;7.00;99.90
45535;DHT22;35892;48.798;9.698;2022-11-20T04:44:03;7.00;99.90
45535;DHT22;35892;48.798;9.698;2022-11-20T04:46:35;7.00;99.90
45535;DHT22;35892;48.798;9.698;2022-11-20T04:49:05;7.10;99.90
45535;DHT22;35892;48.798;9.698;2022-11-20T04:51:33;7.00;99.90
45535;DHT22;35892;48.798;9.698;2022-11-20T04:53:59;6.90;99.90
45535;DHT22;35892;48.798;9.698;2022-11-20T04:56:26;7.00;99.90
45535;DHT22;35892;48.798;9.698;2022-11-20T04:58:53;6.90;99.90
45535;DHT22;35892;48.798;9.698;2022-11-20T05:01:23;7.00;99.90
45535;DHT22;35892;48.798;9.698;2022-11-20T05:03:53;7.00;99.90
45535;DHT22;35892;48.798;9.698;2022-11-20T05:06:21;7.00;99.90
45535;DHT22;35892;48.798;9.698;2022-11-20T05:08:48;6.90;99.90
45535;DHT22;35892;48.798;9.698;2022-11-20T05:11:18;6.90;99.90
45535;DHT22;35892;48.798;9.698;2022-11-20T05:13:46;7.00;99.90
45535;DHT22;35892;48.798;9.698;2022-11-20T05:16:18;6.90;99.90
45535;DHT22;35892;48.798;9.698;2022-11-20T05:18:45;6.90;99.90
45535;DHT22;35892;48.798;9.698;2022-11-20T05:21:12;6.90;99.90
45535;DHT22;35892;48.798;9.698;2022-11-20T05:23:42;7.00;99.90
45535;DHT22;35892;48.798;9.698;2022-11-20T05:26:15;6.90;99.90
45535;DHT22;35892;48.798;9.698;2022-11-20T05:28:42;6.90;99.90
45535;DHT22;35892;48.798;9.698;2022-11-20T05:31:11;6.90;99.90
45535;DHT22;35892;48.798;9.698;2022-11-20T05:33:40;6.90;99.90
45535;DHT22;35892;48.798;9.698;2022-11-20T05:36:07;6.90;99.90
45535;DHT22;35892;48.798;9.698;2022-11-20T05:38:34;6.90;99.90
45535;DHT22;35892;48.798;9.698;2022-11-20T05:41:18;7.00;99.90
45535;DHT22;35892;48.798;9.698;2022-11-20T05:43:48;7.00;99.90
45535;DHT22;35892;48.798;9.698;2022-11-20T05:46:18;6.90;99.90
45535;DHT22;35892;48.798;9.698;2022-11-20T05:48:50;6.90;99.90
45535;DHT22;35892;48.798;9.698;2022-11-20T05:51:19;6.80;99.90
45535;DHT22;35892;48.798;9.698;2022-11-20T05:53:48;6.80;99.90
45535;DHT22;35892;48.798;9.698;2022-11-20T05:56:20;6.80;99.90
45535;DHT22;35892;48.798;9.698;2022-11-20T05:58:47;6.80;99.90
45535;DHT22;35892;48.798;9.698;2022-11-20T06:01:23;6.80;99.90
45535;DHT22;35892;48.798;9.698;2022-11-20T06:03:50;6.80;99.90
45535;DHT22;35892;48.798;9.698;2022-11-20T06:06:18;6.90;99.90
45535;DHT22;35892;48.798;9.698;2022-11-20T06:08:49;7.00;99.90
45535;DHT22;35892;48.798;9.698;2022-11-20T06:11:16;6.90;99.90
45535;DHT22;35892;48.798;9.698;2022-11-20T06:13:44;6.90;99.90
45535;DHT22;35892;48.798;9.698;2022-11-20T06:16:14;6.80;99.90
45535;DHT22;35892;48.798;9.698;2022-11-20T06:18:43;6.80;99.90
45535;DHT22;35892;48.798;9.698;2022-11-20T06:21:18;6.80;99.90
45535;DHT22;35892;48.798;9.698;2022-11-20T06:23:45;6.70;99.90
45535;DHT22;35892;48.798;9.698;2022-11-20T06:26:20;6.80;99.90
45535;DHT22;35892;48.798;9.698;2022-11-20T06:28:52;6.80;99.90
45535;DHT22;35892;48.798;9.698;2022-11-20T06:31:20;6.80;99.90
45535;DHT22;35892;48.798;9.698;2022-11-20T06:33:48;6.80;99.90
45535;DHT22;35892;48.798;9.698;2022-11-20T06:36:16;6.80;99.90
45535;DHT22;35892;48.798;9.698;2022-11-20T06:38:43;6.80;99.90
45535;DHT22;35892;48.798;9.698;2022-11-20T06:41:13;6.90;99.90
45535;DHT22;35892;48.798;9.698;2022-11-20T06:43:39;7.00;99.90
45535;DHT22;35892;48.798;9.698;2022-11-20T06:46:09;7.00;99.90
45535;DHT22;35892;48.798;9.698;2022-11-20T06:48:37;7.00;99.90
45535;DHT22;35892;48.798;9.698;2022-11-20T06:51:05;7.10;99.90
45535;DHT22;35892;48.798;9.698;2022-11-20T06:53:35;7.30;99.90
45535;DHT22;35892;48.798;9.698;2022-11-20T06:56:07;7.30;99.90
45535;DHT22;35892;48.798;9.698;2022-11-20T06:58:35;7.40;99.90
45535;DHT22;35892;48.798;9.698;2022-11-20T07:01:14;7.30;99.90
45535;DHT22;35892;48.798;9.698;2022-11-20T07:03:47;7.30;99.90
45535;DHT22;35892;48.798;9.698;2022-11-20T07:06:20;7.40;99.90
45535;DHT22;35892;48.798;9.698;2022-11-20T07:08:46;7.40;99.90
45535;DHT22;35892;48.798;9.698;2022-11-20T07:11:13;7.30;99.90
45535;DHT22;35892;48.798;9.698;2022-11-20T07:13:42;7.40;99.90
45535;DHT22;35892;48.798;9.698;2022-11-20T07:16:09;7.40;99.90
45535;DHT22;35892;48.798;9.698;2022-11-20T07:18:36;7.40;99.90
45535;DHT22;35892;48.798;9.698;2022-11-20T07:21:08;7.30;99.90
45535;DHT22;35892;48.798;9.698;2022-11-20T07:23:37;7.40;99.90
45535;DHT22;35892;48.798;9.698;2022-11-20T07:26:09;7.30;99.90
45535;DHT22;35892;48.798;9.698;2022-11-20T07:28:36;7.30;99.90
45535;DHT22;35892;48.798;9.698;2022-11-20T07:31:03;7.40;99.90
45535;DHT22;35892;48.798;9.698;2022-11-20T07:33:31;7.40;99.90
45535;DHT22;35892;48.798;9.698;2022-11-20T07:35:59;7.40;99.90
45535;DHT22;35892;48.798;9.698;2022-11-20T07:38:28;7.40;99.90
45535;DHT22;35892;48.798;9.698;2022-11-20T07:40:56;7.40;99.90
45535;DHT22;35892;48.798;9.698;2022-11-20T07:43:24;7.40;99.90
45535;DHT22;35892;48.798;9.698;2022-11-20T07:45:51;7.40;99.90
45535;DHT22;35892;48.798;9.698;2022-11-20T07:48:18;7.40;99.90
45535;DHT22;35892;48.798;9.698;2022-11-20T07:50:47;7.40;99.90
45535;DHT22;35892;48.798;9.698;2022-11-20T07:53:14;7.50;99.90
45535;DHT22;35892;48.798;9.698;2022-11-20T07:55:47;7.50;99.90
45535;DHT22;35892;48.798;9.698;2022-11-20T07:58:16;7.50;99.90
45535;DHT22;35892;48.798;9.698;2022-11-20T08:00:43;7.60;99.90
45535;DHT22;35892;48.798;9.698;2022-11-20T08:03:12;7.60;99.90
45535;DHT22;35892;48.798;9.698;2022-11-20T08:05:42;7.60;99.90
45535;DHT22;35892;48.798;9.698;2022-11-20T08:08:08;7.60;99.90
45535;DHT22;35892;48.798;9.698;2022-11-20T08:10:35;7.60;99.90
45535;DHT22;35892;48.798;9.698;2022-11-20T08:13:02;7.60;99.90
45535;DHT22;35892;48.798;9.698;2022-11-20T08:16:03;7.50;99.90
45535;DHT22;35892;48.798;9.698;2022-11-20T08:18:33;7.50;99.90
45535;DHT22;35892;48.798;9.698;2022-11-20T08:21:05;7.60;99.90
45535;DHT22;35892;48.798;9.698;2022-11-20T08:23:32;7.60;99.90
45535;DHT22;35892;48.798;9.698;2022-11-20T08:26:01;7.70;99.90
45535;DHT22;35892;48.798;9.698;2022-11-20T08:28:28;7.60;99.90
45535;DHT22;35892;48.798;9.698;2022-11-20T08:30:59;7.60;99.90
45535;DHT22;35892;48.798;9.698;2022-11-20T08:33:27;7.60;99.90
45535;DHT22;35892;48.798;9.698;2022-11-20T08:35:53;7.60;99.90
45535;DHT22;35892;48.798;9.698;2022-11-20T08:38:24;7.50;99.90
45535;DHT22;35892;48.798;9.698;2022-11-20T08:40:51;7.60;99.90
45535;DHT22;35892;48.798;9.698;2022-11-20T08:43:39;7.60;99.90
45535;DHT22;35892;48.798;9.698;2022-11-20T08:46:06;7.70;99.90
45535;DHT22;35892;48.798;9.698;2022-11-20T08:48:35;7.70;99.90
45535;DHT22;35892;48.798;9.698;2022-11-20T08:51:04;7.70;99.90
45535;DHT22;35892;48.798;9.698;2022-11-20T08:53:33;7.80;99.90
45535;DHT22;35892;48.798;9.698;2022-11-20T08:56:00;7.80;99.90
45535;DHT22;35892;48.798;9.698;2022-11-20T08:58:29;7.80;99.90
45535;DHT22;35892;48.798;9.698;2022-11-20T09:00:57;7.80;99.90
45535;DHT22;35892;48.798;9.698;2022-11-20T09:03:24;7.70;99.90
45535;DHT22;35892;48.798;9.698;2022-11-20T09:06:04;7.70;99.90
45535;DHT22;35892;48.798;9.698;2022-11-20T09:08:31;7.90;99.90
45535;DHT22;35892;48.798;9.698;2022-11-20T09:11:00;7.90;99.90
45535;DHT22;35892;48.798;9.698;2022-11-20T09:13:30;7.90;99.90
45535;DHT22;35892;48.798;9.698;2022-11-20T09:16:01;7.90;99.90
45535;DHT22;35892;48.798;9.698;2022-11-20T09:18:29;7.90;99.90
45535;DHT22;35892;48.798;9.698;2022-11-20T09:21:04;8.00;99.90
45535;DHT22;35892;48.798;9.698;2022-11-20T09:23:34;8.00;99.90
45535;DHT22;35892;48.798;9.698;2022-11-20T09:26:10;8.00;99.90
45535;DHT22;35892;48.798;9.698;2022-11-20T09:28:40;8.00;99.90
45535;DHT22;35892;48.798;9.698;2022-11-20T09:31:22;8.10;99.90
45535;DHT22;35892;48.798;9.698;2022-11-20T09:33:49;8.10;99.90
45535;DHT22;35892;48.798;9.698;2022-11-20T09:36:18;8.10;99.90
45535;DHT22;35892;48.798;9.698;2022-11-20T09:38:48;8.10;99.90
45535;DHT22;35892;48.798;9.698;2022-11-20T09:41:37;8.10;99.90
45535;DHT22;35892;48.798;9.698;2022-11-20T09:52:22;7.90;99.90
45535;DHT22;35892;48.798;9.698;2022-11-20T09:54:53;8.00;99.90
45535;DHT22;35892;48.798;9.698;2022-11-20T09:57:34;8.00;99.90
45535;DHT22;35892;48.798;9.698;2022-11-20T10:00:04;7.90;99.90
45535;DHT22;35892;48.798;9.698;2022-11-20T10:05:41;8.00;99.90
45535;DHT22;35892;48.798;9.698;2022-11-20T10:16:39;8.10;99.90
45535;DHT22;35892;48.798;9.698;2022-11-20T10:22:03;8.10;99.90
45535;DHT22;35892;48.798;9.698;2022-11-20T10:30:07;8.20;99.90
45535;DHT22;35892;48.798;9.698;2022-11-20T10:32:46;8.20;99.90
45535;DHT22;35892;48.798;9.698;2022-11-20T10:35:28;8.20;99.90
45535;DHT22;35892;48.798;9.698;2022-11-20T10:37:59;8.20;99.90
45535;DHT22;35892;48.798;9.698;2022-11-20T10:42:59;8.30;99.90
45535;DHT22;35892;48.798;9.698;2022-11-20T10:45:40;8.20;99.90
45535;DHT22;35892;48.798;9.698;2022-11-20T10:48:10;8.10;99.90
45535;DHT22;35892;48.798;9.698;2022-11-20T10:50:47;8.00;99.90
45535;DHT22;35892;48.798;9.698;2022-11-20T10:56:47;7.90;99.90
45535;DHT22;35892;48.798;9.698;2022-11-20T11:04:49;7.80;99.90
45535;DHT22;35892;48.798;9.698;2022-11-20T11:07:24;7.70;99.90
45535;DHT22;35892;48.798;9.698;2022-11-20T11:09:54;7.60;99.90
45535;DHT22;35892;48.798;9.698;2022-11-20T11:12:25;7.60;99.90
45535;DHT22;35892;48.798;9.698;2022-11-20T11:14:57;7.60;99.90
45535;DHT22;35892;48.798;9.698;2022-11-20T11:17:33;7.60;99.90
45535;DHT22;35892;48.798;9.698;2022-11-20T11:20:16;7.70;99.90
45535;DHT22;35892;48.798;9.698;2022-11-20T11:22:50;7.70;99.90
45535;DHT22;35892;48.798;9.698;2022-11-20T11:27:58;7.60;99.90
45535;DHT22;35892;48.798;9.698;2022-11-20T11:30:27;7.60;99.90
45535;DHT22;35892;48.798;9.698;2022-11-20T11:33:06;7.70;99.90
45535;DHT22;35892;48.798;9.698;2022-11-20T11:35:44;7.70;99.90
45535;DHT22;35892;48.798;9.698;2022-11-20T11:38:21;7.80;99.90
45535;DHT22;35892;48.798;9.698;2022-11-20T11:40:49;7.80;99.90
45535;DHT22;35892;48.798;9.698;2022-11-20T11:43:29;7.70;99.90
45535;DHT22;35892;48.798;9.698;2022-11-20T11:46:54;7.80;99.90
45535;DHT22;35892;48.798;9.698;2022-11-20T11:49:22;7.80;99.90
45535;DHT22;35892;48.798;9.698;2022-11-20T11:54:58;7.80;99.90
45535;DHT22;35892;48.798;9.698;2022-11-20T12:00:08;7.60;99.90
45535;DHT22;35892;48.798;9.698;2022-11-20T12:10:28;7.70;99.90
45535;DHT22;35892;48.798;9.698;2022-11-20T12:15:49;7.90;99.90
45535;DHT22;35892;48.798;9.698;2022-11-20T12:18:19;8.10;99.90
45535;DHT22;35892;48.798;9.698;2022-11-20T12:23:48;8.60;99.90
45535;DHT22;35892;48.798;9.698;2022-11-20T12:39:58;8.70;99.90
45535;DHT22;35892;48.798;9.698;2022-11-20T12:48:46;9.00;99.90
45535;DHT22;35892;48.798;9.698;2022-11-20T12:59:17;9.50;99.90
45535;DHT22;35892;48.798;9.698;2022-11-20T13:01:58;9.50;99.90
45535;DHT22;35892;48.798;9.698;2022-11-20T13:07:13;9.30;99.90
45535;DHT22;35892;48.798;9.698;2022-11-20T13:09:46;9.40;99.90
45535;DHT22;35892;48.798;9.698;2022-11-20T13:12:38;9.40;99.90
45535;DHT22;35892;48.798;9.698;2022-11-20T13:18:15;9.50;99.90
45535;DHT22;35892;48.798;9.698;2022-11-20T13:20:46;9.50;99.90
45535;DHT22;35892;48.798;9.698;2022-11-20T13:23:27;9.50;99.90
45535;DHT22;35892;48.798;9.698;2022-11-20T13:26:13;9.40;99.90
45535;DHT22;35892;48.798;9.698;2022-11-20T13:28:43;9.30;99.90
45535;DHT22;35892;48.798;9.698;2022-11-20T13:31:29;9.30;99.90
45535;DHT22;35892;48.798;9.698;2022-11-20T13:33:58;9.30;99.90
45535;DHT22;35892;48.798;9.698;2022-11-20T13:36:28;9.30;99.90
45535;DHT22;35892;48.798;9.698;2022-11-20T13:38:56;9.30;99.90
45535;DHT22;35892;48.798;9.698;2022-11-20T13:41:29;9.40;99.90
45535;DHT22;35892;48.798;9.698;2022-11-20T13:44:14;9.50;99.90
45535;DHT22;35892;48.798;9.698;2022-11-20T13:46:47;9.60;99.90
45535;DHT22;35892;48.798;9.698;2022-11-20T13:49:25;9.60;99.90
45535;DHT22;35892;48.798;9.698;2022-11-20T13:57:32;9.60;99.90
45535;DHT22;35892;48.798;9.698;2022-11-20T14:00:22;9.60;99.90
45535;DHT22;35892;48.798;9.698;2022-11-20T14:03:20;9.50;99.90
45535;DHT22;35892;48.798;9.698;2022-11-20T14:06:41;9.50;99.90
45535;DHT22;35892;48.798;9.698;2022-11-20T14:09:01;9.50;99.90
45535;DHT22;35892;48.798;9.698;2022-11-20T14:11:29;9.40;99.90
45535;DHT22;35892;48.798;9.698;2022-11-20T14:16:34;9.30;99.90
45535;DHT22;35892;48.798;9.698;2022-11-20T14:21:48;9.30;99.90
45535;DHT22;35892;48.798;9.698;2022-11-20T14:24:23;9.30;99.90
45535;DHT22;35892;48.798;9.698;2022-11-20T14:26:51;9.20;99.90
45535;DHT22;35892;48.798;9.698;2022-11-20T14:29:21;9.10;99.90
45535;DHT22;35892;48.798;9.698;2022-11-20T14:31:51;9.00;99.90
45535;DHT22;35892;48.798;9.698;2022-11-20T14:34:25;9.00;99.90
45535;DHT22;35892;48.798;9.698;2022-11-20T14:37:00;9.00;99.90
45535;DHT22;35892;48.798;9.698;2022-11-20T14:39:40;9.00;99.90
45535;DHT22;35892;48.798;9.698;2022-11-20T14:42:28;9.00;99.90
45535;DHT22;35892;48.798;9.698;2022-11-20T14:44:57;9.00;99.90
45535;DHT22;35892;48.798;9.698;2022-11-20T14:47:29;9.00;99.90
45535;DHT22;35892;48.798;9.698;2022-11-20T14:49:57;9.10;99.90
45535;DHT22;35892;48.798;9.698;2022-11-20T14:52:28;9.10;99.90
45535;DHT22;35892;48.798;9.698;2022-11-20T14:54:57;9.10;99.90
45535;DHT22;35892;48.798;9.698;2022-11-20T14:57:34;9.00;99.90
45535;DHT22;35892;48.798;9.698;2022-11-20T15:02:32;8.90;99.90
45535;DHT22;35892;48.798;9.698;2022-11-20T15:05:01;8.80;99.90
45535;DHT22;35892;48.798;9.698;2022-11-20T15:07:33;8.80;99.90
45535;DHT22;35892;48.798;9.698;2022-11-20T15:12:28;8.70;99.90
45535;DHT22;35892;48.798;9.698;2022-11-20T15:14:55;8.80;99.90
45535;DHT22;35892;48.798;9.698;2022-11-20T15:17:24;8.60;99.90
45535;DHT22;35892;48.798;9.698;2022-11-20T15:19:52;8.50;99.90
45535;DHT22;35892;48.798;9.698;2022-11-20T15:22:19;8.40;99.90
45535;DHT22;35892;48.798;9.698;2022-11-20T15:24:48;8.20;99.90
45535;DHT22;35892;48.798;9.698;2022-11-20T15:27:15;8.20;99.90
45535;DHT22;35892;48.798;9.698;2022-11-20T15:29:42;8.20;99.90
45535;DHT22;35892;48.798;9.698;2022-11-20T15:32:09;8.10;99.90
45535;DHT22;35892;48.798;9.698;2022-11-20T15:34:39;8.10;99.90
45535;DHT22;35892;48.798;9.698;2022-11-20T15:37:06;8.10;99.90
45535;DHT22;35892;48.798;9.698;2022-11-20T15:39:35;8.10;99.90
45535;DHT22;35892;48.798;9.698;2022-11-20T15:42:02;8.20;99.90
45535;DHT22;35892;48.798;9.698;2022-11-20T15:44:28;8.10;99.90
45535;DHT22;35892;48.798;9.698;2022-11-20T15:46:55;8.10;99.90
45535;DHT22;35892;48.798;9.698;2022-11-20T15:49:24;8.20;99.90
45535;DHT22;35892;48.798;9.698;2022-11-20T15:51:51;8.20;99.90
45535;DHT22;35892;48.798;9.698;2022-11-20T15:54:21;8.20;99.90
45535;DHT22;35892;48.798;9.698;2022-11-20T15:56:52;8.20;99.90
45535;DHT22;35892;48.798;9.698;2022-11-20T15:59:19;8.20;99.90
45535;DHT22;35892;48.798;9.698;2022-11-20T16:01:48;8.30;99.90
45535;DHT22;35892;48.798;9.698;2022-11-20T16:04:16;8.30;99.90
45535;DHT22;35892;48.798;9.698;2022-11-20T16:06:43;8.30;99.90
45535;DHT22;35892;48.798;9.698;2022-11-20T16:09:12;8.30;99.90
45535;DHT22;35892;48.798;9.698;2022-11-20T16:11:39;8.30;99.90
45535;DHT22;35892;48.798;9.698;2022-11-20T16:14:06;8.10;99.90
45535;DHT22;35892;48.798;9.698;2022-11-20T16:16:54;8.10;99.90
45535;DHT22;35892;48.798;9.698;2022-11-20T16:19:23;8.10;99.90
45535;DHT22;35892;48.798;9.698;2022-11-20T16:21:52;8.00;99.90
45535;DHT22;35892;48.798;9.698;2022-11-20T16:24:28;7.80;99.90
45535;DHT22;35892;48.798;9.698;2022-11-20T16:26:59;7.80;99.90
45535;DHT22;35892;48.798;9.698;2022-11-20T16:29:26;7.80;99.90
45535;DHT22;35892;48.798;9.698;2022-11-20T16:31:53;7.60;99.90
45535;DHT22;35892;48.798;9.698;2022-11-20T16:34:22;7.50;99.90
45535;DHT22;35892;48.798;9.698;2022-11-20T16:36:48;7.30;99.90
45535;DHT22;35892;48.798;9.698;2022-11-20T16:39:15;7.10;99.90
45535;DHT22;35892;48.798;9.698;2022-11-20T16:41:51;7.00;99.90
45535;DHT22;35892;48.798;9.698;2022-11-20T16:44:20;6.90;99.90
45535;DHT22;35892;48.798;9.698;2022-11-20T16:46:48;6.90;99.90
45535;DHT22;35892;48.798;9.698;2022-11-20T16:49:14;6.90;99.90
45535;DHT22;35892;48.798;9.698;2022-11-20T16:51:41;6.80;99.90
45535;DHT22;35892;48.798;9.698;2022-11-20T16:54:09;6.80;99.90
45535;DHT22;35892;48.798;9.698;2022-11-20T16:56:36;6.80;99.90
45535;DHT22;35892;48.798;9.698;2022-11-20T16:59:03;6.70;99.90
45535;DHT22;35892;48.798;9.698;2022-11-20T17:01:32;6.70;99.90
45535;DHT22;35892;48.798;9.698;2022-11-20T17:04:05;6.70;99.90
45535;DHT22;35892;48.798;9.698;2022-11-20T17:06:34;6.60;99.90
45535;DHT22;35892;48.798;9.698;2022-11-20T17:09:05;6.60;99.90
45535;DHT22;35892;48.798;9.698;2022-11-20T17:11:35;6.50;99.90
45535;DHT22;35892;48.798;9.698;2022-11-20T17:14:02;6.50;99.90
45535;DHT22;35892;48.798;9.698;2022-11-20T17:16:29;6.50;99.90
45535;DHT22;35892;48.798;9.698;2022-11-20T17:18:59;6.40;99.90
45535;DHT22;35892;48.798;9.698;2022-11-20T17:21:30;6.40;99.90
45535;DHT22;35892;48.798;9.698;2022-11-20T17:24:03;6.40;99.90
45535;DHT22;35892;48.798;9.698;2022-11-20T17:26:36;6.30;99.90
45535;DHT22;35892;48.798;9.698;2022-11-20T17:29:09;6.30;99.90
45535;DHT22;35892;48.798;9.698;2022-11-20T17:31:36;6.30;99.90
45535;DHT22;35892;48.798;9.698;2022-11-20T17:34:09;6.30;99.90
45535;DHT22;35892;48.798;9.698;2022-11-20T17:36:37;6.30;99.90
45535;DHT22;35892;48.798;9.698;2022-11-20T17:39:12;6.30;99.90
45535;DHT22;35892;48.798;9.698;2022-11-20T17:41:46;6.30;99.90
45535;DHT22;35892;48.798;9.698;2022-11-20T17:44:33;6.20;99.90
45535;DHT22;35892;48.798;9.698;2022-11-20T17:47:03;6.10;99.90
45535;DHT22;35892;48.798;9.698;2022-11-20T17:49:29;6.10;99.90
45535;DHT22;35892;48.798;9.698;2022-11-20T17:51:56;6.10;99.90
45535;DHT22;35892;48.798;9.698;2022-11-20T17:54:26;6.10;99.90
45535;DHT22;35892;48.798;9.698;2022-11-20T17:56:53;6.10;99.90
45535;DHT22;35892;48.798;9.698;2022-11-20T17:59:39;6.00;99.90
45535;DHT22;35892;48.798;9.698;2022-11-20T18:02:08;6.00;99.90
45535;DHT22;35892;48.798;9.698;2022-11-20T18:04:36;6.00;99.90